Time;durP1;ratioP1;P1;durP2;ratioP2;P2;SDS_P1;SDS_P2;PMS_P1;PMS_P2;Temp;Humidity;BMP_temperature;BMP_pressure;BME280_temperature;BME280_humidity;BME280_pressure;Samples;Min_cycle;Max_cycle;Signal;HPM_P1;HPM_P2
2022/12/13 02:34:57;;;;;;;32.20;24.33;;;;;;;-1.08;100.00;98950.50;1754473;79;22858;-68
2022/12/13 02:37:37;;;;;;;33.20;22.62;;;;;;;-1.03;100.00;98958.66;1695979;83;20965;-70
2022/12/13 02:40:12;;;;;;;31.23;22.30;;;;;;;-0.91;100.00;98960.23;1647386;87;21166;-70
2022/12/13 02:42:59;;;;;;;32.40;22.93;;;;;;;-0.85;100.00;98959.96;1665628;86;20943;-71
2022/12/13 02:45:47;;;;;;;33.13;22.23;;;;;;;-0.84;100.00;98964.23;1642951;86;21058;-68
2022/12/13 02:48:18;;;;;;;34.23;24.10;;;;;;;-0.79;100.00;98971.07;1656138;86;21069;-69
2022/12/13 02:50:45;;;;;;;30.97;23.33;;;;;;;-0.79;100.00;98974.53;1653198;86;21592;-70
2022/12/13 02:53:13;;;;;;;35.97;25.63;;;;;;;-0.76;100.00;98974.63;1646923;85;21437;-68
2022/12/13 02:55:40;;;;;;;38.60;26.77;;;;;;;-0.74;100.00;98972.13;1659729;84;21018;-69
2022/12/13 02:58:11;;;;;;;39.23;23.70;;;;;;;-0.74;100.00;98968.66;1653102;86;21056;-68
2022/12/13 03:01:01;;;;;;;29.33;21.17;;;;;;;-0.70;100.00;98977.31;1646960;85;21071;-69
2022/12/13 03:03:55;;;;;;;32.27;21.83;;;;;;;-0.62;100.00;98983.75;1652442;86;21058;-70
2022/12/13 03:06:43;;;;;;;33.75;22.62;;;;;;;-0.62;100.00;98985.57;1618563;85;22007;-69
2022/12/13 03:09:27;;;;;;;33.10;23.20;;;;;;;-0.64;100.00;98987.11;1655304;85;21015;-68
2022/12/13 03:15:28;;;;;;;38.70;26.83;;;;;;;-0.56;100.00;98992.22;1646455;87;21000;-69
2022/12/13 03:18:14;;;;;;;35.87;23.37;;;;;;;-0.57;100.00;98991.08;1618451;87;21084;-70
2022/12/13 03:20:54;;;;;;;37.37;27.43;;;;;;;-0.48;100.00;98988.08;1647094;87;21169;-68
2022/12/13 03:23:22;;;;;;;33.70;22.80;;;;;;;-0.42;100.00;98994.41;1619732;87;21029;-67
2022/12/13 03:25:52;;;;;;;35.10;26.20;;;;;;;-0.49;100.00;98993.58;1646677;85;21143;-69
2022/12/13 03:28:19;;;;;;;32.50;23.60;;;;;;;-0.56;100.00;98987.44;1645341;86;21056;-69
2022/12/13 03:30:47;;;;;;;39.05;25.82;;;;;;;-0.63;100.00;98983.97;1645445;85;21017;-70
2022/12/13 03:33:14;;;;;;;31.23;23.33;;;;;;;-0.64;100.00;98983.15;1645418;86;21163;-69
2022/12/13 03:35:41;;;;;;;37.50;23.47;;;;;;;-0.61;100.00;98981.42;1644877;87;21112;-70
2022/12/13 03:38:12;;;;;;;34.63;22.90;;;;;;;-0.55;100.00;98966.13;1662532;85;21024;-67
2022/12/13 03:40:39;;;;;;;37.85;24.98;;;;;;;-0.40;100.00;98964.67;1645064;87;21580;-69
2022/12/13 03:43:05;;;;;;;33.50;23.65;;;;;;;-0.27;100.00;98971.81;1644989;87;21016;-68
2022/12/13 03:45:35;;;;;;;36.90;24.18;;;;;;;-0.17;100.00;98963.02;1650402;85;22288;-68
2022/12/13 03:48:04;;;;;;;32.30;23.60;;;;;;;-0.10;100.00;98962.03;1614510;86;21035;-67
2022/12/13 03:50:31;;;;;;;26.48;20.23;;;;;;;-0.05;100.00;98966.72;1619592;88;21075;-68
2022/12/13 03:52:59;;;;;;;31.15;22.22;;;;;;;-0.05;100.00;98965.41;1619861;88;21125;-68
2022/12/13 03:55:26;;;;;;;35.38;25.55;;;;;;;-0.11;100.00;98961.72;1621375;87;21163;-71
2022/12/13 03:57:53;;;;;;;36.93;25.30;;;;;;;-0.15;100.00;98963.14;1642465;87;21148;-72
2022/12/13 04:00:19;;;;;;;30.52;21.40;;;;;;;-0.19;100.00;98960.56;1644857;86;21651;-70
2022/12/13 04:02:45;;;;;;;32.90;23.95;;;;;;;-0.22;100.00;98951.72;1645026;86;21112;-68
2022/12/13 04:05:12;;;;;;;31.35;22.05;;;;;;;-0.22;100.00;98957.51;1671392;85;21085;-69
2022/12/13 04:07:39;;;;;;;34.92;22.10;;;;;;;-0.22;100.00;98954.86;1650520;85;21128;-69
2022/12/13 04:10:08;;;;;;;35.70;25.02;;;;;;;-0.22;100.00;98949.58;1644816;86;22301;-69
2022/12/13 04:15:20;;;;;;;36.48;24.20;;;;;;;-0.18;100.00;98965.34;1646271;86;21004;-69
2022/12/13 04:17:47;;;;;;;40.55;26.12;;;;;;;-0.18;100.00;98967.98;1644774;86;21131;-67
2022/12/13 04:20:14;;;;;;;38.48;26.95;;;;;;;-0.21;100.00;98971.85;1660086;85;21111;-68
2022/12/13 04:22:41;;;;;;;35.95;26.90;;;;;;;-0.26;100.00;98967.66;1644515;85;21154;-69
2022/12/13 04:25:08;;;;;;;34.30;22.80;;;;;;;-0.31;100.00;98970.08;1673683;85;21114;-67
2022/12/13 04:27:36;;;;;;;31.87;23.98;;;;;;;-0.36;100.00;98973.83;1652110;85;21056;-69
2022/12/13 04:30:05;;;;;;;32.05;23.65;;;;;;;-0.40;100.00;98973.91;1644123;87;21024;-70
2022/12/13 04:32:32;;;;;;;32.78;25.32;;;;;;;-0.42;100.00;98961.39;1646293;87;21546;-67
2022/12/13 04:35:00;;;;;;;39.45;28.02;;;;;;;-0.42;100.00;98968.00;1642875;85;21162;-69
2022/12/13 04:37:29;;;;;;;36.33;25.62;;;;;;;-0.42;100.00;98965.36;1641087;87;21570;-68
2022/12/13 04:39:55;;;;;;;36.28;23.98;;;;;;;-0.39;100.00;98965.48;1642068;87;21012;-69
2022/12/13 04:42:22;;;;;;;34.63;25.37;;;;;;;-0.37;100.00;98962.13;1651986;85;20981;-69
2022/12/13 04:44:49;;;;;;;32.48;25.32;;;;;;;-0.32;100.00;98964.98;1643099;85;21068;-69
2022/12/13 04:47:16;;;;;;;35.90;26.75;;;;;;;-0.34;100.00;98962.56;1642373;87;21127;-67
2022/12/13 04:49:46;;;;;;;34.27;25.20;;;;;;;-0.33;100.00;98964.67;1618128;87;21123;-69
2022/12/13 04:52:13;;;;;;;36.17;24.32;;;;;;;-0.34;100.00;98975.77;1642242;87;21087;-67
2022/12/13 04:54:39;;;;;;;35.38;26.52;;;;;;;-0.35;100.00;98968.85;1660562;85;21071;-69
2022/12/13 04:57:07;;;;;;;43.87;29.70;;;;;;;-0.37;100.00;98970.05;1655443;85;21091;-69
2022/12/13 04:59:35;;;;;;;41.45;29.18;;;;;;;-0.35;100.00;98969.36;1638502;87;21426;-68
2022/12/13 05:02:03;;;;;;;63.90;44.42;;;;;;;-0.32;100.00;98971.09;1640456;85;21611;-68
2022/12/13 05:04:30;;;;;;;39.03;27.73;;;;;;;-0.32;100.00;98968.95;1643463;85;21655;-70
2022/12/13 05:06:57;;;;;;;35.60;26.60;;;;;;;-0.25;100.00;98971.94;1669915;85;21502;-68
2022/12/13 05:09:24;;;;;;;30.17;23.75;;;;;;;-0.15;100.00;98975.03;1669957;85;22217;-66
2022/12/13 05:11:51;;;;;;;33.73;24.75;;;;;;;-0.14;100.00;98981.09;1647548;85;21497;-69
2022/12/13 05:14:17;;;;;;;36.00;23.92;;;;;;;-0.17;100.00;98986.80;1642037;87;21273;-69
2022/12/13 05:16:44;;;;;;;31.87;23.77;;;;;;;-0.19;100.00;98988.84;1641016;87;21081;-68
2022/12/13 05:19:10;;;;;;;33.42;22.87;;;;;;;-0.20;100.00;98987.20;1640942;87;21095;-70
2022/12/13 05:21:37;;;;;;;37.00;25.10;;;;;;;-0.23;100.00;98984.94;1642284;87;21115;-73
2022/12/13 05:24:05;;;;;;;32.50;22.58;;;;;;;-0.31;100.00;98995.68;1656029;85;21223;-69
2022/12/13 05:26:31;;;;;;;30.00;22.65;;;;;;;-0.35;100.00;98996.59;1641345;87;22218;-68
2022/12/13 05:28:58;;;;;;;30.10;22.67;;;;;;;-0.32;100.00;98996.19;1645164;85;21496;-69
2022/12/13 05:31:25;;;;;;;31.15;23.15;;;;;;;-0.24;100.00;98999.97;1669775;85;21608;-68
2022/12/13 05:33:55;;;;;;;33.10;25.15;;;;;;;-0.17;100.00;99002.14;1659092;85;21654;-69
2022/12/13 05:36:24;;;;;;;35.03;24.23;;;;;;;-0.14;100.00;99007.02;1645171;87;21281;-68
2022/12/13 05:38:52;;;;;;;34.48;24.82;;;;;;;-0.10;100.00;99003.50;1644629;87;21138;-69
2022/12/13 05:41:21;;;;;;;35.17;25.15;;;;;;;-0.05;100.00;99003.19;1644840;86;21584;-70
2022/12/13 05:43:49;;;;;;;43.38;27.82;;;;;;;-0.02;100.00;98994.06;1644928;87;21049;-70
2022/12/13 05:46:17;;;;;;;30.32;21.85;;;;;;;0.01;100.00;99002.91;1645768;85;21125;-68
2022/12/13 05:48:43;;;;;;;32.83;23.55;;;;;;;0.03;100.00;99011.46;1646315;87;21328;-70
2022/12/13 05:51:10;;;;;;;30.10;22.15;;;;;;;0.05;100.00;99014.70;1646144;87;21011;-70
2022/12/13 05:53:45;;;;;;;37.60;24.32;;;;;;;0.08;100.00;99011.69;1646390;86;20996;-69
2022/12/13 05:56:12;;;;;;;44.35;29.18;;;;;;;0.05;100.00;99002.02;1644761;87;21076;-69
2022/12/13 05:58:40;;;;;;;42.67;27.87;;;;;;;0.04;100.00;98991.13;1650101;85;21143;-70
2022/12/13 06:01:12;;;;;;;37.10;27.55;;;;;;;0.07;100.00;98986.25;1671337;85;21264;-71
2022/12/13 06:03:41;;;;;;;42.80;26.33;;;;;;;0.13;100.00;98988.11;1672015;85;21053;-71
2022/12/13 06:06:09;;;;;;;37.00;27.98;;;;;;;0.19;100.00;98983.32;1650211;85;21052;-70
2022/12/13 06:08:37;;;;;;;36.88;26.23;;;;;;;0.24;100.00;98980.89;1645059;85;21398;-70
2022/12/13 06:11:06;;;;;;;45.10;29.87;;;;;;;0.22;100.00;98992.70;1645225;87;21023;-69
2022/12/13 06:13:32;;;;;;;36.53;26.37;;;;;;;0.16;100.00;98994.30;1645667;87;21271;-70
2022/12/13 06:16:04;;;;;;;45.20;30.40;;;;;;;0.22;100.00;98994.84;1643687;86;21556;-69
2022/12/13 06:18:33;;;;;;;39.20;26.77;;;;;;;0.31;100.00;98994.95;1617188;87;21060;-72
2022/12/13 06:21:02;;;;;;;44.60;30.57;;;;;;;0.40;100.00;99001.67;1653163;85;21094;-71
2022/12/13 06:23:30;;;;;;;41.85;28.42;;;;;;;0.40;100.00;98998.22;1655352;85;21136;-70
2022/12/13 06:25:56;;;;;;;42.93;30.37;;;;;;;0.41;100.00;98994.56;1648547;85;21645;-70
2022/12/13 10:50:24;;;;;;;28.17;21.87;;;;;;;0.10;100.00;99007.50;1726718;80;46172;-70
2022/12/13 10:52:50;;;;;;;30.88;21.68;;;;;;;0.17;100.00;98993.80;1698608;84;21006;-68
2022/12/13 10:55:39;;;;;;;32.53;24.30;;;;;;;0.29;100.00;98993.51;1666220;84;21235;-73
2022/12/13 10:58:08;;;;;;;29.65;22.75;;;;;;;0.35;100.00;98992.20;1678284;84;21597;-70
2022/12/13 11:00:39;;;;;;;28.98;22.27;;;;;;;0.42;100.00;98992.23;1678905;85;20928;-70
2022/12/13 11:03:06;;;;;;;33.63;23.25;;;;;;;0.47;100.00;98995.59;1651882;86;21503;-72
2022/12/13 11:05:37;;;;;;;28.85;21.62;;;;;;;0.49;100.00;98989.57;1694916;84;21343;-80
2022/12/13 11:08:29;;;;;;;27.35;20.92;;;;;;;0.57;100.00;98988.07;1683922;84;21864;-77
2022/12/13 11:10:58;;;;;;;29.25;22.85;;;;;;;0.63;100.00;98985.41;1676726;85;21582;-79
2022/12/13 11:18:56;;;;;;;28.60;22.22;;;;;;;0.60;100.00;98995.59;1638815;85;23186;-86
2022/12/13 11:21:26;;;;;;;31.60;22.07;;;;;;;0.58;100.00;98988.35;1674640;85;21434;-84
2022/12/13 11:23:56;;;;;;;29.57;22.22;;;;;;;0.56;100.00;98989.08;1672519;85;20918;-87
2022/12/13 11:26:27;;;;;;;30.80;22.10;;;;;;;0.57;100.00;98980.95;1652296;86;21058;-90
2022/12/13 11:29:30;;;;;;;27.85;21.17;;;;;;;0.61;100.00;98982.67;1655874;86;21013;-82
2022/12/13 11:32:26;;;;;;;32.63;23.42;;;;;;;0.65;100.00;98982.06;1682915;84;21544;-82
2022/12/13 11:35:19;;;;;;;29.85;22.87;;;;;;;0.70;100.00;98983.59;1698964;84;21181;-73
2022/12/13 11:38:00;;;;;;;31.75;25.15;;;;;;;0.69;100.00;98981.95;1654633;86;20979;-75
2022/12/13 11:40:32;;;;;;;29.95;20.97;;;;;;;0.70;100.00;98984.09;1671784;84;21048;-78
2022/12/13 11:43:25;;;;;;;28.32;22.85;;;;;;;0.66;100.00;98987.67;1679689;81;21036;-75
2022/12/13 11:45:58;;;;;;;30.68;22.22;;;;;;;0.61;100.00;98980.84;1757471;81;20994;-77
2022/12/13 11:48:33;;;;;;;37.20;23.87;;;;;;;0.59;100.00;98982.05;1789237;80;21091;-74
2022/12/13 11:51:02;;;;;;;31.68;21.73;;;;;;;0.60;100.00;98981.04;1754398;81;21014;-79
2022/12/13 11:56:39;;;;;;;25.12;19.57;;;;;;;0.65;100.00;98986.54;1700449;81;20986;-70
2022/12/13 11:59:46;;;;;;;27.25;20.72;;;;;;;0.60;100.00;98992.44;1674313;82;37878;-75
2022/12/13 12:02:34;;;;;;;26.00;18.50;;;;;;;0.53;100.00;98994.25;1728620;83;21096;-75
2022/12/13 12:05:05;;;;;;;25.75;18.80;;;;;;;0.51;100.00;98989.69;1713519;83;21055;-67
2022/12/13 12:07:50;;;;;;;26.42;19.35;;;;;;;0.57;100.00;98995.50;1730291;83;22178;-76
2022/12/13 12:10:28;;;;;;;24.72;19.77;;;;;;;0.57;100.00;98995.50;1730152;83;21033;-76
2022/12/13 12:13:06;;;;;;;28.10;19.57;;;;;;;0.56;100.00;98995.70;1729052;83;20971;-79
2022/12/13 12:15:37;;;;;;;23.92;17.62;;;;;;;0.50;100.00;99002.60;1726701;83;21383;-74
2022/12/13 12:18:04;;;;;;;24.00;17.67;;;;;;;0.47;100.00;99000.38;1730306;81;21598;-75
2022/12/13 12:20:47;;;;;;;20.97;16.20;;;;;;;0.43;100.00;99009.73;1730070;83;21070;-76
2022/12/13 12:23:40;;;;;;;19.77;16.55;;;;;;;0.42;100.00;99006.27;1729670;81;21621;-72
2022/12/13 12:26:16;;;;;;;19.02;17.02;;;;;;;0.39;99.88;99000.04;1727482;83;21042;-74
2022/12/13 12:29:26;;;;;;;21.85;14.63;;;;;;;0.35;99.41;99001.46;1730151;83;21067;-76
2022/12/13 12:32:30;;;;;;;19.25;16.45;;;;;;;0.32;99.27;98997.91;1729903;83;21010;-77
2022/12/13 12:35:25;;;;;;;21.52;16.25;;;;;;;0.29;99.22;98996.97;1717053;83;21003;-73
2022/12/13 12:38:05;;;;;;;25.95;17.20;;;;;;;0.27;99.18;99003.48;1700473;84;21058;-81
2022/12/13 12:40:59;;;;;;;22.37;18.27;;;;;;;0.20;98.77;99003.97;1712083;83;21503;-80
2022/12/13 12:43:36;;;;;;;23.60;17.48;;;;;;;0.16;98.92;99004.88;1730261;83;21847;-86
2022/12/13 12:46:31;;;;;;;22.58;16.32;;;;;;;0.18;99.33;99002.05;1674544;84;21039;-75
2022/12/13 12:49:33;;;;;;;23.40;16.77;;;;;;;0.22;99.42;99000.63;1707515;83;20991;-76
2022/12/13 12:52:34;;;;;;;22.40;16.77;;;;;;;0.22;99.11;99000.63;1730245;83;21539;-70
2022/12/13 12:55:18;;;;;;;21.75;15.88;;;;;;;0.18;98.89;99002.87;1729477;82;21075;-77
2022/12/13 12:58:05;;;;;;;24.67;18.85;;;;;;;0.09;98.42;98994.00;1729449;83;21016;-72
2022/12/13 13:01:01;;;;;;;19.12;14.87;;;;;;;0.03;98.46;98991.64;1723336;82;21045;-79
2022/12/13 13:03:29;;;;;;;18.32;15.38;;;;;;;-0.04;98.42;98989.47;1710749;82;21097;-71
2022/12/13 13:06:07;;;;;;;22.40;17.45;;;;;;;-0.10;98.34;98996.89;1739206;82;21580;-77
2022/12/13 13:08:44;;;;;;;21.77;16.57;;;;;;;-0.14;98.60;98987.70;1718668;82;21006;-67
2022/12/13 13:11:11;;;;;;;22.37;16.25;;;;;;;-0.12;98.93;98989.66;1739097;82;21168;-68
2022/12/13 13:13:50;;;;;;;23.98;18.62;;;;;;;-0.14;98.87;98985.06;1739143;82;21006;-69
2022/12/13 13:16:33;;;;;;;22.73;15.38;;;;;;;-0.18;98.78;98985.97;1739158;82;20985;-69
2022/12/13 13:19:17;;;;;;;21.42;16.82;;;;;;;-0.20;99.00;98990.66;1739161;82;20986;-73
2022/12/13 13:21:54;;;;;;;22.35;15.90;;;;;;;-0.28;98.50;98992.13;1739172;82;20986;-70
2022/12/13 13:24:25;;;;;;;21.70;16.73;;;;;;;-0.34;98.57;98998.73;1739817;82;21914;-81
2022/12/13 13:26:59;;;;;;;21.60;16.52;;;;;;;-0.41;98.64;98986.80;1739327;82;20986;-78
2022/12/13 13:29:29;;;;;;;22.22;16.77;;;;;;;-0.41;98.97;98990.77;1739067;82;21009;-80
2022/12/13 13:32:15;;;;;;;20.77;15.83;;;;;;;-0.40;99.01;98992.40;1709629;82;21093;-76
2022/12/13 13:34:45;;;;;;;21.73;15.83;;;;;;;-0.43;98.95;98984.06;1709907;83;21041;-75
2022/12/13 13:37:30;;;;;;;21.93;15.67;;;;;;;-0.46;98.88;98995.82;1709753;84;21058;-80
2022/12/13 13:40:16;;;;;;;24.90;18.67;;;;;;;-0.47;98.78;98994.18;1737370;82;21013;-79
2022/12/13 13:43:08;;;;;;;24.87;18.57;;;;;;;-0.53;98.82;98985.74;1739523;82;20981;-80
2022/12/13 13:45:58;;;;;;;21.77;17.13;;;;;;;-0.55;98.93;98984.61;1734245;81;20914;-76
2022/12/13 13:48:51;;;;;;;23.60;17.83;;;;;;;-0.57;99.18;98980.52;1738886;82;21042;-78
2022/12/13 13:51:51;;;;;;;19.85;14.95;;;;;;;-0.57;99.22;98980.02;1739306;82;21573;-68
2022/12/13 13:54:46;;;;;;;23.17;18.00;;;;;;;-0.55;99.33;98988.57;1738121;81;21061;-73
2022/12/13 13:57:24;;;;;;;24.98;17.45;;;;;;;-0.56;99.39;98987.44;1739369;82;21004;-75
2022/12/13 14:00:15;;;;;;;21.43;17.20;;;;;;;-0.58;99.50;98982.38;1733899;82;21093;-82
2022/12/13 14:02:55;;;;;;;18.40;15.47;;;;;;;-0.57;99.59;98987.13;1715309;83;21050;-77
2022/12/13 14:05:47;;;;;;;21.82;17.02;;;;;;;-0.59;99.61;98983.88;1714937;83;21276;-81
2022/12/13 14:08:56;;;;;;;19.80;14.90;;;;;;;-0.60;99.73;98985.70;1715173;83;20975;-76
2022/12/13 18:59:45;;;;;;;5.00;4.57;;;;;;;-1.07;95.28;99059.50;1779081;78;25919;-80
2022/12/13 19:02:12;;;;;;;4.83;4.30;;;;;;;-1.05;93.93;99076.75;1762174;81;21203;-81
2022/12/13 19:04:40;;;;;;;6.23;5.63;;;;;;;-0.98;93.03;99079.46;1748119;81;21239;-81
2022/12/13 19:07:08;;;;;;;7.97;4.87;;;;;;;-0.93;92.34;99083.16;1711071;82;21014;-82
2022/12/13 19:09:35;;;;;;;5.17;4.67;;;;;;;-0.90;91.98;99077.49;1752138;81;20954;-82
2022/12/13 19:12:03;;;;;;;6.23;5.23;;;;;;;-0.86;91.70;99081.88;1712262;81;20965;-83
2022/12/13 19:14:30;;;;;;;4.40;4.10;;;;;;;-0.84;91.46;99085.66;1701251;82;20943;-81
2022/12/13 19:16:58;;;;;;;5.43;4.77;;;;;;;-0.83;91.56;99074.92;1729962;81;21612;-73
2022/12/13 19:19:28;;;;;;;8.13;5.13;;;;;;;-0.80;91.62;99077.16;1699206;84;21152;-79
2022/12/13 19:21:56;;;;;;;6.37;4.87;;;;;;;-0.80;91.24;99084.26;1715290;83;20982;-73
2022/12/13 19:24:23;;;;;;;6.53;5.80;;;;;;;-0.80;90.90;99085.58;1716112;82;21009;-76
2022/12/13 19:26:58;;;;;;;9.33;5.90;;;;;;;-0.82;90.36;99094.21;1745456;81;21097;-77
2022/12/13 19:29:26;;;;;;;7.70;5.40;;;;;;;-0.82;89.82;99103.45;1763660;81;21309;-78
2022/12/13 19:31:57;;;;;;;5.70;4.73;;;;;;;-0.83;89.70;99109.23;1733948;81;21026;-83
2022/12/13 19:34:30;;;;;;;7.87;6.17;;;;;;;-0.83;89.40;99102.63;1762413;81;20980;-81
2022/12/13 19:36:55;;;;;;;10.53;5.83;;;;;;;-0.83;89.31;99103.13;1756684;80;21095;-79
2022/12/13 19:39:25;;;;;;;6.03;5.40;;;;;;;-0.83;89.36;99103.13;1773814;80;20943;-79
2022/12/13 19:41:56;;;;;;;6.90;5.63;;;;;;;-0.83;89.13;99107.09;1686730;83;21082;-81
2022/12/13 19:44:25;;;;;;;8.10;6.80;;;;;;;-0.86;89.19;99103.52;1708158;84;21122;-82
2022/12/13 19:46:54;;;;;;;7.60;5.70;;;;;;;-0.92;88.75;99117.80;1716697;81;21071;-81
2022/12/13 19:49:21;;;;;;;6.73;5.50;;;;;;;-0.97;88.35;99120.69;1768886;81;21598;-77
2022/12/13 19:51:50;;;;;;;5.13;4.60;;;;;;;-1.03;88.21;99120.11;1766966;81;20978;-78
2022/12/13 19:54:16;;;;;;;5.83;5.17;;;;;;;-1.11;88.19;99134.27;1738082;82;21565;-78
2022/12/13 19:56:45;;;;;;;6.43;5.60;;;;;;;-1.16;88.17;99122.64;1730187;81;21031;-76
2022/12/13 19:59:13;;;;;;;5.60;5.00;;;;;;;-1.21;88.17;99128.98;1737196;82;20995;-79
2022/12/13 20:01:40;;;;;;;8.07;5.40;;;;;;;-1.28;87.89;99125.45;1732161;82;21492;-76
2022/12/13 20:04:07;;;;;;;7.03;6.33;;;;;;;-1.34;88.08;99145.47;1730904;81;21063;-80
2022/12/13 20:06:34;;;;;;;7.30;5.87;;;;;;;-1.41;88.18;99132.23;1754969;81;21880;-78
2022/12/13 20:09:01;;;;;;;6.03;5.43;;;;;;;-1.47;88.24;99133.47;1737090;81;21743;-72
2022/12/13 20:11:30;;;;;;;6.40;5.20;;;;;;;-1.53;88.44;99138.16;1728855;83;21500;-79
2022/12/13 20:13:57;;;;;;;6.47;5.87;;;;;;;-1.55;88.82;99146.28;1731000;82;21470;-78
2022/12/13 20:16:27;;;;;;;8.80;6.07;;;;;;;-1.58;88.92;99136.61;1732511;81;21056;-71
2022/12/13 20:18:58;;;;;;;5.53;4.87;;;;;;;-1.63;88.97;99155.59;1708848;82;21032;-73
2022/12/13 20:21:25;;;;;;;8.37;6.63;;;;;;;-1.68;89.00;99159.31;1728452;82;21006;-72
2022/12/13 20:23:54;;;;;;;9.77;7.17;;;;;;;-1.70;89.21;99159.98;1757501;80;21542;-78
2022/12/13 20:26:24;;;;;;;6.37;5.50;;;;;;;-1.72;89.27;99155.87;1770547;79;20971;-77
2022/12/13 20:28:57;;;;;;;8.37;6.10;;;;;;;-1.75;89.54;99178.17;1767727;81;21049;-78
2022/12/13 20:31:29;;;;;;;6.60;5.90;;;;;;;-1.78;89.73;99156.96;1765170;81;21131;-78
2022/12/13 20:34:07;;;;;;;5.83;5.33;;;;;;;-1.82;90.00;99159.62;1765316;79;21021;-82
2022/12/13 20:36:35;;;;;;;8.43;5.97;;;;;;;-1.83;90.27;99165.92;1705884;83;21090;-73
2022/12/13 20:39:07;;;;;;;6.83;5.90;;;;;;;-1.84;90.44;99164.77;1755028;81;21534;-78
2022/12/13 20:41:35;;;;;;;9.93;7.10;;;;;;;-1.88;90.54;99159.06;1737447;81;21008;-79
2022/12/13 20:44:05;;;;;;;8.07;7.10;;;;;;;-1.92;90.71;99160.40;1765374;80;21698;-79
2022/12/13 20:46:34;;;;;;;8.93;7.40;;;;;;;-1.93;90.95;99172.46;1754732;81;21034;-80
2022/12/13 20:49:02;;;;;;;10.33;7.60;;;;;;;-1.95;91.07;99167.36;1736460;82;21048;-81
2022/12/13 20:51:31;;;;;;;8.17;6.47;;;;;;;-1.96;91.29;99185.98;1720563;83;20999;-76
2022/12/13 20:54:00;;;;;;;7.57;6.57;;;;;;;-1.97;91.45;99177.78;1762762;79;21581;-84
2022/12/13 20:56:33;;;;;;;6.90;6.03;;;;;;;-2.00;91.51;99176.31;1762219;79;20953;-78
2022/12/13 20:59:05;;;;;;;10.23;7.77;;;;;;;-2.01;91.71;99168.58;1747552;80;21089;-77
2022/12/13 21:01:37;;;;;;;7.40;6.50;;;;;;;-2.02;91.75;99180.97;1744966;82;21031;-77
2022/12/13 21:04:04;;;;;;;7.13;6.43;;;;;;;-2.03;91.90;99180.64;1796857;78;22405;-76
2022/12/13 21:06:34;;;;;;;7.93;6.60;;;;;;;-2.05;91.96;99181.31;1792523;78;21040;-74
2022/12/13 21:09:02;;;;;;;9.10;6.50;;;;;;;-2.09;92.00;99181.85;1792387;79;21134;-78
2022/12/13 21:11:33;;;;;;;8.53;6.87;;;;;;;-2.12;92.08;99176.46;1793667;79;21044;-74
2022/12/13 21:14:04;;;;;;;7.33;6.13;;;;;;;-2.13;92.21;99182.72;1796464;78;20931;-78
2022/12/13 21:16:55;;;;;;;8.53;7.03;;;;;;;-2.12;92.31;99183.55;1794615;78;21060;-78
2022/12/13 21:19:27;;;;;;;11.10;6.37;;;;;;;-2.14;92.29;99201.33;1793982;78;21605;-76
2022/12/13 21:21:54;;;;;;;8.87;7.83;;;;;;;-2.20;92.31;99191.02;1771600;79;21131;-75
2022/12/13 21:24:22;;;;;;;7.37;6.67;;;;;;;-2.22;92.37;99185.13;1795648;78;20983;-79
2022/12/13 21:26:50;;;;;;;8.83;6.97;;;;;;;-2.24;92.37;99191.88;1746233;81;21078;-78
2022/12/13 21:29:17;;;;;;;11.23;6.50;;;;;;;-2.26;92.39;99197.84;1697017;81;21039;-86
2022/12/13 21:31:56;;;;;;;8.20;7.00;;;;;;;-2.31;92.26;99198.88;1753934;80;21521;-86
2022/12/13 21:34:22;;;;;;;8.57;6.83;;;;;;;-2.32;92.32;99199.88;1748909;80;21159;-86
2022/12/13 21:36:51;;;;;;;8.27;6.60;;;;;;;-2.34;92.35;99193.95;1737378;82;21029;-84
2022/12/13 21:39:21;;;;;;;7.97;6.13;;;;;;;-2.34;92.36;99201.85;1745077;82;21002;-77
2022/12/13 21:41:52;;;;;;;8.73;6.87;;;;;;;-2.35;92.36;99202.05;1765696;80;21481;-73
2022/12/13 21:44:19;;;;;;;10.87;7.30;;;;;;;-2.35;92.32;99196.27;1828338;78;21586;-71
2022/12/13 21:46:46;;;;;;;9.53;7.10;;;;;;;-2.35;92.37;99191.00;1795835;79;21589;-73
2022/12/13 21:49:13;;;;;;;8.50;6.80;;;;;;;-2.36;92.38;99198.59;1796000;79;21558;-72
2022/12/13 21:51:40;;;;;;;9.00;6.43;;;;;;;-2.38;92.43;99180.02;1801783;78;21001;-73
2022/12/13 21:54:07;;;;;;;9.00;6.10;;;;;;;-2.38;92.47;99190.55;1761088;81;20960;-78
2022/12/13 21:59:23;;;;;;;9.20;6.57;;;;;;;-2.43;92.51;99189.77;1744620;82;21037;-80
2022/12/13 22:02:19;;;;;;;8.63;7.30;;;;;;;-2.42;92.37;99186.64;1752332;80;21599;-78
2022/12/13 22:04:54;;;;;;;8.53;6.57;;;;;;;-2.43;92.38;99186.31;1771730;80;21209;-79
2022/12/13 22:07:24;;;;;;;12.93;7.13;;;;;;;-2.43;92.29;99196.34;1745232;82;21062;-80
2022/12/13 22:09:52;;;;;;;10.33;7.40;;;;;;;-2.43;92.12;99212.14;1745079;82;21070;-71
2022/12/13 22:12:34;;;;;;;8.00;6.93;;;;;;;-2.43;91.83;99210.01;1748975;80;21002;-72
2022/12/13 22:15:02;;;;;;;8.85;6.12;;;;;;;-2.46;91.67;99206.42;1794973;79;21105;-70
2022/12/13 22:17:29;;;;;;;9.33;7.03;;;;;;;-2.46;91.78;99218.27;1792476;80;21042;-73
2022/12/13 22:19:56;;;;;;;9.13;7.33;;;;;;;-2.45;91.76;99213.33;1792370;80;21571;-70
2022/12/13 22:22:23;;;;;;;9.03;6.90;;;;;;;-2.42;91.73;99217.73;1795360;78;21042;-72
2022/12/13 22:24:50;;;;;;;9.60;7.43;;;;;;;-2.41;91.60;99218.56;1738986;82;22910;-73
2022/12/13 22:27:22;;;;;;;9.03;6.90;;;;;;;-2.41;91.63;99219.88;1736101;82;21460;-75
2022/12/13 22:29:47;;;;;;;7.73;6.93;;;;;;;-2.38;91.77;99216.37;1736385;81;21006;-75
2022/12/13 22:32:13;;;;;;;8.17;7.37;;;;;;;-2.36;91.80;99222.80;1759739;80;21022;-72
2022/12/13 22:34:40;;;;;;;9.00;8.10;;;;;;;-2.34;91.76;99232.14;1744992;82;20988;-74
2022/12/13 22:37:06;;;;;;;9.33;7.27;;;;;;;-2.33;91.91;99225.88;1743506;82;22010;-74
2022/12/13 22:39:32;;;;;;;8.87;6.97;;;;;;;-2.32;92.15;99229.34;1714192;82;21074;-74
2022/12/13 22:41:59;;;;;;;8.83;7.50;;;;;;;-2.32;92.47;99230.16;1801805;78;20913;-77
2022/12/13 22:44:27;;;;;;;10.63;7.30;;;;;;;-2.34;92.75;99226.05;1823543;78;20972;-73
2022/12/13 22:46:53;;;;;;;9.37;8.37;;;;;;;-2.32;93.19;99224.06;1795378;78;21047;-77
2022/12/13 22:49:21;;;;;;;11.33;8.37;;;;;;;-2.29;93.44;99222.38;1794625;78;21312;-71
2022/12/13 22:51:48;;;;;;;9.57;7.80;;;;;;;-2.25;93.69;99224.97;1738636;81;21207;-73
2022/12/13 22:54:14;;;;;;;10.63;8.47;;;;;;;-2.23;93.80;99226.94;1796204;79;20987;-73
2022/12/13 22:56:41;;;;;;;11.40;8.20;;;;;;;-2.21;93.93;99224.95;1793157;79;20999;-70
2022/12/13 22:59:07;;;;;;;9.93;8.17;;;;;;;-2.14;94.11;99232.94;1805513;78;21639;-71
2022/12/13 23:01:37;;;;;;;9.23;8.33;;;;;;;-2.13;93.93;99245.94;1814403;78;21224;-72
2022/12/13 23:04:05;;;;;;;8.73;7.83;;;;;;;-2.15;93.83;99234.75;1768092;81;20970;-71
2022/12/13 23:06:37;;;;;;;8.80;7.57;;;;;;;-2.18;93.87;99244.34;1750169;79;21002;-70
2022/12/13 23:09:07;;;;;;;11.33;7.67;;;;;;;-2.20;93.99;99243.69;1755445;80;21548;-73
2022/12/13 23:14:28;;;;;;;11.50;8.07;;;;;;;-2.18;94.21;99243.52;1784353;79;21779;-73
2022/12/13 23:16:54;;;;;;;11.87;8.23;;;;;;;-2.18;94.20;99245.66;1771740;80;21007;-73
2022/12/13 23:19:20;;;;;;;10.40;9.20;;;;;;;-2.22;94.19;99243.89;1787750;78;21058;-73
2022/12/13 23:21:47;;;;;;;11.43;8.33;;;;;;;-2.22;94.33;99244.38;1783742;80;20963;-72
2022/12/13 23:24:13;;;;;;;11.30;8.37;;;;;;;-2.21;94.43;99256.03;1788301;79;21029;-73
2022/12/13 23:26:40;;;;;;;9.63;8.17;;;;;;;-2.21;94.42;99249.98;1776637;79;21138;-72
2022/12/13 23:29:07;;;;;;;13.27;9.00;;;;;;;-2.21;94.49;99253.93;1788997;79;20982;-71
2022/12/13 23:31:37;;;;;;;12.77;8.67;;;;;;;-2.23;94.41;99252.78;1815597;78;22152;-71
2022/12/13 23:34:03;;;;;;;10.10;8.00;;;;;;;-2.27;94.42;99256.77;1786098;78;20951;-71
2022/12/13 23:36:31;;;;;;;10.80;9.13;;;;;;;-2.30;94.54;99260.23;1775685;80;21536;-70
2022/12/13 23:38:59;;;;;;;15.73;10.53;;;;;;;-2.31;94.64;99249.41;1784437;79;21822;-70
2022/12/13 23:41:27;;;;;;;10.40;8.70;;;;;;;-2.32;94.69;99260.94;1815616;78;21003;-71
2022/12/13 23:43:55;;;;;;;10.97;9.10;;;;;;;-2.34;94.59;99262.42;1795652;79;21536;-69
2022/12/13 23:46:25;;;;;;;13.10;9.40;;;;;;;-2.35;94.60;99267.36;1783183;80;21038;-70
2022/12/13 23:48:52;;;;;;;14.17;9.67;;;;;;;-2.35;94.63;99261.30;1782098;80;21032;-71
2022/12/13 23:51:19;;;;;;;11.60;9.20;;;;;;;-2.35;94.71;99267.36;1781821;80;21960;-71